Time;durP1;ratioP1;P1;durP2;ratioP2;P2;SDS_P1;SDS_P2;PMS_P1;PMS_P2;Temp;Humidity;BMP_temperature;BMP_pressure;BME280_temperature;BME280_humidity;BME280_pressure;Samples;Min_cycle;Max_cycle;Signal;HPM_P1;HPM_P2
2022/03/02 00:02:16;;;;;;;34.47;22.58;;;5.40;99.90;;;;;;5092901;28;20039;-81
2022/03/02 00:05:01;;;;;;;34.83;21.67;;;5.20;99.90;;;;;;5093064;28;20075;-81
2022/03/02 00:07:45;;;;;;;36.25;22.45;;;5.20;99.90;;;;;;5093364;28;20071;-81
2022/03/02 00:10:29;;;;;;;32.55;21.98;;;5.30;99.90;;;;;;5092690;28;20094;-81
2022/03/02 00:13:14;;;;;;;34.15;22.58;;;5.20;99.90;;;;;;5092523;28;20181;-81
2022/03/02 00:15:58;;;;;;;;;;;5.20;99.90;;;;;;5093233;28;20124;-81
2022/03/02 00:18:43;;;;;;;36.28;21.75;;;5.20;99.90;;;;;;5077758;28;19923;-81
2022/03/02 00:21:28;;;;;;;40.58;22.13;;;5.20;99.90;;;;;;5091009;28;20067;-81
2022/03/02 00:24:13;;;;;;;36.13;21.73;;;5.70;99.90;;;;;;5077470;28;20446;-82
2022/03/02 00:26:57;;;;;;;;;;;5.20;99.90;;;;;;5093232;28;20138;-81
2022/03/02 00:29:41;;;;;;;;;;;6.00;99.90;;;;;;5093210;28;19918;-81
2022/03/02 00:32:26;;;;;;;33.17;20.98;;;5.80;99.90;;;;;;5092291;28;19935;-81
2022/03/02 00:35:10;;;;;;;36.67;21.88;;;5.50;99.90;;;;;;5092225;28;20035;-81
2022/03/02 00:37:55;;;;;;;40.50;22.00;;;5.30;99.90;;;;;;5063152;28;20039;-80
2022/03/02 00:40:40;;;;;;;34.33;21.60;;;5.20;99.90;;;;;;5076934;28;20066;-80
2022/03/02 00:43:25;;;;;;;36.90;23.45;;;5.20;99.90;;;;;;5091905;28;20090;-81
2022/03/02 00:46:09;;;;;;;35.33;21.17;;;5.10;99.90;;;;;;5081480;28;20170;-81
2022/03/02 00:48:53;;;;;;;;;;;5.30;99.90;;;;;;5057856;28;20107;-81
2022/03/02 00:51:38;;;;;;;33.15;20.70;;;5.20;99.90;;;;;;5073126;28;20086;-81
2022/03/02 00:54:22;;;;;;;36.15;21.65;;;5.20;99.90;;;;;;5091990;28;20043;-81
2022/03/02 00:57:07;;;;;;;35.15;22.63;;;5.20;99.90;;;;;;5092384;28;20035;-81
2022/03/02 00:59:51;;;;;;;35.88;22.00;;;5.10;99.90;;;;;;5076617;28;20157;-80
2022/03/02 01:02:36;;;;;;;40.60;23.70;;;6.00;99.90;;;;;;5076515;28;20085;-81
2022/03/02 01:05:20;;;;;;;38.15;23.67;;;7.00;99.90;;;;;;5091691;28;20101;-82
2022/03/02 01:08:06;;;;;;;39.35;22.75;;;5.10;99.90;;;;;;5092469;28;20457;-81
2022/03/02 01:10:50;;;;;;;34.63;21.77;;;6.20;99.90;;;;;;5092209;28;20141;-81
2022/03/02 01:13:34;;;;;;;35.85;21.25;;;5.90;99.90;;;;;;5076023;28;20040;-81
2022/03/02 01:16:19;;;;;;;37.25;22.08;;;5.30;99.90;;;;;;5075196;28;20035;-81
2022/03/02 01:19:04;;;;;;;34.80;22.30;;;5.60;99.90;;;;;;5092232;28;20035;-81
2022/03/02 01:21:48;;;;;;;37.47;22.13;;;5.80;99.90;;;;;;5092286;28;20085;-81
2022/03/02 01:24:33;;;;;;;39.20;22.45;;;5.20;99.90;;;;;;5076325;28;20046;-80
2022/03/02 01:27:18;;;;;;;37.05;23.42;;;5.10;99.90;;;;;;5076703;28;20408;-81
2022/03/02 01:30:04;;;;;;;36.15;22.88;;;5.10;99.90;;;;;;5091875;28;20089;-80
2022/03/02 01:32:48;;;;;;;37.25;23.10;;;5.80;99.90;;;;;;5091968;28;20043;-79
2022/03/02 01:35:33;;;;;;;38.90;22.95;;;5.10;99.90;;;;;;5050455;28;20133;-80
2022/03/02 01:38:17;;;;;;;;;;;6.00;99.90;;;;;;5057009;28;20124;-80
2022/03/02 01:41:01;;;;;;;36.40;21.33;;;5.20;99.90;;;;;;5064605;28;19934;-79
2022/03/02 01:43:46;;;;;;;37.08;22.60;;;5.10;99.90;;;;;;5071148;28;20035;-80
2022/03/02 01:46:30;;;;;;;37.72;22.88;;;5.80;99.90;;;;;;5055735;28;20106;-80
2022/03/02 01:49:14;;;;;;;41.08;23.00;;;5.60;99.90;;;;;;5071630;28;20127;-80
2022/03/02 01:51:58;;;;;;;;;;;5.10;99.90;;;;;;5072073;28;20047;-80
2022/03/02 01:54:43;;;;;;;38.10;22.23;;;5.10;99.90;;;;;;5071163;28;19920;-79
2022/03/02 01:57:27;;;;;;;;;;;5.10;99.90;;;;;;5071321;28;20408;-80
2022/03/02 02:00:18;;;;;;;38.15;22.70;;;5.00;99.90;;;;;;5071451;28;20003;-80
2022/03/02 02:03:02;;;;;;;39.70;23.90;;;5.00;99.90;;;;;;5071293;28;20123;-79
2022/03/02 02:05:47;;;;;;;35.63;22.13;;;5.00;99.90;;;;;;5070798;28;20114;-80
2022/03/02 02:08:32;;;;;;;37.30;23.52;;;6.60;99.90;;;;;;5070828;28;20086;-79
2022/03/02 02:11:16;;;;;;;41.50;25.02;;;5.00;99.90;;;;;;5075773;28;20457;-79
2022/03/02 02:14:01;;;;;;;44.65;25.27;;;5.50;99.90;;;;;;5075170;28;20086;-80
2022/03/02 02:16:45;;;;;;;39.00;24.27;;;5.30;99.90;;;;;;5059474;28;20043;-80
2022/03/02 02:19:30;;;;;;;44.50;25.23;;;5.00;99.90;;;;;;5059190;28;20036;-81
2022/03/02 02:22:14;;;;;;;43.95;26.92;;;6.00;99.90;;;;;;5059789;28;20127;-80
2022/03/02 02:24:58;;;;;;;;;;;5.60;99.90;;;;;;5075432;28;20048;-80
2022/03/02 02:27:44;;;;;;;41.38;24.67;;;4.90;99.90;;;;;;5053275;28;20434;-80
2022/03/02 02:30:29;;;;;;;42.08;26.60;;;4.90;99.90;;;;;;5059781;28;20040;-81
2022/03/02 02:33:14;;;;;;;45.58;26.90;;;4.90;99.90;;;;;;5074959;28;20447;-80
2022/03/02 02:35:58;;;;;;;43.28;27.00;;;4.90;99.90;;;;;;5078968;28;20038;-80
2022/03/02 02:38:43;;;;;;;42.97;24.63;;;4.90;99.90;;;;;;5094296;28;20047;-80
2022/03/02 02:41:27;;;;;;;42.55;25.80;;;4.90;99.90;;;;;;5079627;28;20097;-80
2022/03/02 02:44:11;;;;;;;;;;;4.90;99.90;;;;;;5095236;28;20530;-80
2022/03/02 02:46:55;;;;;;;43.60;25.65;;;5.50;99.90;;;;;;5094128;28;19947;-81
2022/03/02 02:49:39;;;;;;;;;;;4.90;99.90;;;;;;5079293;28;20039;-80
2022/03/02 02:52:24;;;;;;;40.85;25.90;;;4.80;99.90;;;;;;5094806;28;19966;-80
2022/03/02 02:55:09;;;;;;;;;;;4.80;99.90;;;;;;5095063;28;20132;-80
2022/03/02 02:57:55;;;;;;;46.28;29.00;;;4.80;99.90;;;;;;5078758;28;19914;-80
2022/03/02 03:00:42;;;;;;;46.67;26.15;;;5.30;99.90;;;;;;5093970;28;20094;-80
2022/03/02 03:03:26;;;;;;;47.00;27.25;;;5.10;99.90;;;;;;5094438;28;20039;-80
2022/03/02 03:06:10;;;;;;;;;;;4.80;99.90;;;;;;5094254;28;20051;-80
2022/03/02 03:08:55;;;;;;;46.72;26.98;;;4.70;99.90;;;;;;5093861;28;20292;-80
2022/03/02 03:11:40;;;;;;;51.97;29.10;;;4.70;99.90;;;;;;5093732;28;20035;-80
2022/03/02 03:14:24;;;;;;;45.40;27.80;;;4.90;99.90;;;;;;5094281;28;20481;-80
2022/03/02 03:17:08;;;;;;;45.53;27.92;;;4.60;99.90;;;;;;5079235;28;20043;-79
2022/03/02 03:19:53;;;;;;;47.92;28.92;;;4.80;99.90;;;;;;5078432;28;20070;-80
2022/03/02 03:22:38;;;;;;;46.55;28.33;;;4.60;99.90;;;;;;5092596;28;20051;-81
2022/03/02 03:25:23;;;;;;;45.67;28.15;;;4.50;99.90;;;;;;5094212;28;20050;-80
2022/03/02 03:28:07;;;;;;;46.28;29.35;;;5.00;99.90;;;;;;5078096;28;20039;-81
2022/03/02 03:30:52;;;;;;;50.28;29.33;;;4.50;99.90;;;;;;5089656;28;20092;-80
2022/03/02 03:33:36;;;;;;;48.70;28.60;;;5.20;99.90;;;;;;5078265;28;20148;-81
2022/03/02 03:36:20;;;;;;;;;;;4.50;99.90;;;;;;5094125;28;20075;-80
2022/03/02 03:39:04;;;;;;;47.35;29.92;;;4.30;99.90;;;;;;5077140;28;19934;-80
2022/03/02 03:41:48;;;;;;;51.17;30.10;;;4.30;99.90;;;;;;5093484;28;20090;-80
2022/03/02 03:44:33;;;;;;;48.33;30.02;;;4.30;99.90;;;;;;5072319;28;20496;-80
2022/03/02 03:47:17;;;;;;;;;;;4.20;99.90;;;;;;5073657;28;20067;-80
2022/03/02 03:50:03;;;;;;;;;;;5.30;99.90;;;;;;5082059;28;20391;-80
2022/03/02 03:52:47;;;;;;;49.05;28.15;;;4.10;99.90;;;;;;5093061;28;19915;-81
2022/03/02 03:55:31;;;;;;;48.28;29.15;;;5.20;99.90;;;;;;5093492;28;20093;-80
2022/03/02 03:58:16;;;;;;;50.03;28.65;;;4.00;99.90;;;;;;5093609;28;20451;-80
2022/03/02 04:01:00;;;;;;;55.78;30.45;;;4.20;99.90;;;;;;5091071;28;20684;-81
2022/03/02 04:03:44;;;;;;;47.20;28.40;;;4.20;99.90;;;;;;5092677;28;20035;-81
2022/03/02 04:06:28;;;;;;;;;;;3.90;99.90;;;;;;5078441;28;20131;-81
2022/03/02 04:09:13;;;;;;;48.80;27.98;;;4.00;99.90;;;;;;5078171;28;19915;-81
2022/03/02 04:11:57;;;;;;;54.40;30.90;;;3.80;99.90;;;;;;5092731;28;20038;-80
2022/03/02 04:14:42;;;;;;;54.90;29.42;;;3.70;99.90;;;;;;5092667;28;20511;-82
2022/03/02 04:17:25;;;;;;;55.60;31.63;;;4.40;99.90;;;;;;5077880;28;20078;-81
2022/03/02 04:20:10;;;;;;;;;;;4.70;99.90;;;;;;5093506;28;20071;-80
2022/03/02 04:22:54;;;;;;;;;;;3.60;99.90;;;;;;5057588;28;19978;-80
2022/03/02 04:25:38;;;;;;;48.33;28.33;;;3.60;99.90;;;;;;5071772;28;20020;-80
2022/03/02 04:28:23;;;;;;;56.38;31.58;;;3.50;99.90;;;;;;5076773;28;20039;-81
2022/03/02 04:31:07;;;;;;;51.45;31.05;;;3.50;99.90;;;;;;5090287;28;20047;-80
2022/03/02 04:33:52;;;;;;;54.90;31.30;;;4.20;99.90;;;;;;5076903;28;20035;-80
2022/03/02 04:36:36;;;;;;;51.28;29.58;;;3.40;99.90;;;;;;5063296;28;20042;-80
2022/03/02 04:39:20;;;;;;;;;;;3.90;99.90;;;;;;5093057;28;20039;-80
2022/03/02 04:42:05;;;;;;;54.17;32.17;;;3.20;99.90;;;;;;5092170;28;19919;-79
2022/03/02 04:44:49;;;;;;;51.28;30.02;;;3.20;99.90;;;;;;5091754;28;20052;-81
2022/03/02 04:47:33;;;;;;;49.10;28.60;;;3.20;99.90;;;;;;5090251;28;20059;-81
2022/03/02 04:50:19;;;;;;;;;;;3.70;99.90;;;;;;5092270;28;20419;-80
2022/03/02 04:53:03;;;;;;;50.58;29.33;;;3.40;99.90;;;;;;5092079;28;20406;-80
2022/03/02 04:55:49;;;;;;;54.40;30.35;;;3.30;99.90;;;;;;5076803;28;20066;-81
2022/03/02 04:58:33;;;;;;;52.10;29.80;;;3.00;99.90;;;;;;5091930;28;20043;-81
2022/03/02 05:01:17;;;;;;;55.25;30.42;;;3.00;99.90;;;;;;5091835;28;20123;-80
2022/03/02 05:04:02;;;;;;;54.00;30.98;;;3.50;99.90;;;;;;5075688;28;20498;-80
2022/03/02 05:06:46;;;;;;;53.00;31.05;;;2.90;99.90;;;;;;5092415;28;20462;-80
2022/03/02 05:09:31;;;;;;;52.72;29.40;;;2.80;99.90;;;;;;5092234;28;20039;-80
2022/03/02 05:12:15;;;;;;;58.28;32.33;;;3.20;99.90;;;;;;5076799;28;20530;-81
2022/03/02 05:14:59;;;;;;;;;;;4.10;99.90;;;;;;5092182;28;20089;-80
2022/03/02 05:17:45;;;;;;;56.42;29.88;;;2.70;99.90;;;;;;5076609;28;20417;-80
2022/03/02 05:20:29;;;;;;;59.40;32.08;;;3.20;99.90;;;;;;5076131;28;20462;-81
2022/03/02 05:23:13;;;;;;;54.58;31.83;;;2.60;99.90;;;;;;5091610;28;20109;-80
2022/03/02 05:25:57;;;;;;;;;;;2.60;99.90;;;;;;5092036;28;20055;-81
2022/03/02 05:28:42;;;;;;;55.00;30.27;;;2.50;99.90;;;;;;5089544;28;19919;-80
2022/03/02 05:31:26;;;;;;;;;;;2.40;99.90;;;;;;5084299;28;20047;-80
2022/03/02 05:34:10;;;;;;;55.85;30.25;;;2.40;99.90;;;;;;5070070;28;19996;-80
2022/03/02 05:36:54;;;;;;;;;;;2.40;99.90;;;;;;5079290;28;20118;-81
2022/03/02 05:39:39;;;;;;;58.50;30.45;;;2.80;99.90;;;;;;5091863;28;19914;-80
2022/03/02 05:42:23;;;;;;;61.45;31.90;;;2.30;99.90;;;;;;5092015;28;20039;-81
2022/03/02 05:45:09;;;;;;;54.35;29.65;;;3.20;99.90;;;;;;5093298;28;20105;-80
2022/03/02 05:47:53;;;;;;;58.80;32.67;;;2.20;99.90;;;;;;5095493;28;20055;-81
2022/03/02 05:50:37;;;;;;;56.42;30.13;;;2.20;99.90;;;;;;5074460;28;20052;-80
2022/03/02 05:53:22;;;;;;;59.10;32.78;;;2.50;99.90;;;;;;5075520;28;20040;-80
2022/03/02 05:56:06;;;;;;;57.30;30.97;;;2.20;99.90;;;;;;5069237;28;20113;-80
2022/03/02 05:58:51;;;;;;;58.42;31.63;;;2.20;99.90;;;;;;5078743;28;20522;-81
2022/03/02 06:01:37;;;;;;;56.80;31.77;;;2.10;99.90;;;;;;5095276;28;20042;-80
2022/03/02 06:04:21;;;;;;;54.08;29.48;;;2.10;99.90;;;;;;5095670;28;20443;-80
2022/03/02 06:07:05;;;;;;;57.10;30.00;;;2.10;99.90;;;;;;5094905;28;20043;-80
2022/03/02 06:09:50;;;;;;;57.75;31.90;;;2.00;99.90;;;;;;5066056;28;20047;-80
2022/03/02 06:12:34;;;;;;;;;;;2.00;99.90;;;;;;5095984;28;20507;-80
2022/03/02 06:15:18;;;;;;;55.00;30.85;;;1.90;99.90;;;;;;5079363;28;19939;-80
2022/03/02 06:18:04;;;;;;;62.22;32.85;;;1.90;99.90;;;;;;5094671;28;20102;-81
2022/03/02 06:20:51;;;;;;;58.90;31.98;;;1.80;99.90;;;;;;5094315;28;20055;-80
2022/03/02 06:23:36;;;;;;;58.88;30.77;;;1.80;99.90;;;;;;5095189;28;20396;-80
2022/03/02 06:26:23;;;;;;;55.03;30.73;;;1.80;99.90;;;;;;5079261;28;20415;-80
2022/03/02 06:29:07;;;;;;;63.47;32.37;;;2.40;99.90;;;;;;5078766;28;20063;-81
2022/03/02 06:31:52;;;;;;;;;;;1.70;99.90;;;;;;5095264;28;20044;-80
2022/03/02 06:34:36;;;;;;;45.38;23.30;;;1.60;99.90;;;;;;5065329;28;19919;-81
2022/03/02 06:37:20;;;;;;;60.53;33.87;;;1.50;99.90;;;;;;5079112;28;20043;-80
2022/03/02 06:40:09;;;;;;;73.10;36.47;;;1.70;99.90;;;;;;5079047;28;20086;-80
2022/03/02 06:43:06;;;;;;;66.30;35.37;;;1.50;99.90;;;;;;5090708;28;20085;-80
2022/03/02 06:45:57;;;;;;;68.83;35.07;;;1.40;99.90;;;;;;5073435;28;20047;-81
2022/03/02 06:48:52;;;;;;;73.17;35.23;;;2.20;99.90;;;;;;5076906;28;20044;-79
2022/03/02 06:51:39;;;;;;;65.37;35.00;;;1.40;99.90;;;;;;5092647;28;20100;-80
2022/03/02 06:54:28;;;;;;;65.47;34.53;;;1.40;99.90;;;;;;5078738;28;20094;-80
2022/03/02 06:57:16;;;;;;;66.00;32.80;;;1.50;99.90;;;;;;5092500;28;20034;-80
2022/03/02 07:00:16;;;;;;;68.53;32.80;;;2.10;99.90;;;;;;5079966;28;20575;-82
2022/03/02 07:03:06;;;;;;;64.57;34.47;;;1.50;99.90;;;;;;5072983;28;20084;-80
2022/03/02 07:05:53;;;;;;;59.20;31.83;;;1.50;99.90;;;;;;5073987;28;20039;-80
2022/03/02 07:08:38;;;;;;;55.23;31.07;;;1.80;99.90;;;;;;5073982;28;20040;-80
2022/03/02 07:11:23;;;;;;;64.87;34.10;;;1.70;99.90;;;;;;5079658;28;20044;-81
2022/03/02 07:14:10;;;;;;;57.73;32.17;;;1.70;99.90;;;;;;5078088;28;20120;-80
2022/03/02 07:16:57;;;;;;;58.03;29.63;;;1.70;99.90;;;;;;5078791;28;20039;-80
2022/03/02 07:19:41;;;;;;;58.53;30.20;;;1.80;99.90;;;;;;5075953;28;20543;-81
2022/03/02 07:22:30;;;;;;;;;;;1.90;99.90;;;;;;5076218;28;20499;-81
2022/03/02 07:25:16;;;;;;;57.73;29.93;;;2.00;99.90;;;;;;5092609;28;19923;-81
2022/03/02 07:28:04;;;;;;;56.53;29.97;;;2.10;99.90;;;;;;5077665;28;20108;-81
2022/03/02 07:30:51;;;;;;;50.93;29.50;;;2.20;99.90;;;;;;5076364;28;20042;-79
2022/03/02 07:33:39;;;;;;;51.63;27.77;;;2.20;99.90;;;;;;5077164;28;20128;-81
2022/03/02 07:36:24;;;;;;;49.07;29.03;;;2.60;99.90;;;;;;5084310;28;20050;-81
2022/03/02 07:39:09;;;;;;;49.23;28.20;;;3.40;99.90;;;;;;5092795;28;20404;-81
2022/03/02 07:41:56;;;;;;;45.83;28.65;;;4.20;99.90;;;;;;5093355;28;20034;-81
2022/03/02 07:44:41;;;;;;;45.67;26.48;;;4.90;99.90;;;;;;5093192;28;20403;-81
2022/03/02 07:47:26;;;;;;;44.05;25.70;;;5.60;99.90;;;;;;5064683;28;20493;-81
2022/03/02 07:50:13;;;;;;;44.00;26.13;;;6.00;99.90;;;;;;5085502;28;20101;-81
2022/03/02 07:53:00;;;;;;;39.95;24.80;;;6.40;99.90;;;;;;5093002;28;20042;-81
2022/03/02 07:55:46;;;;;;;38.08;24.20;;;7.10;99.90;;;;;;5077782;28;20046;-81
2022/03/02 07:58:30;;;;;;;40.05;23.80;;;7.60;99.90;;;;;;5088695;28;20039;-82
2022/03/02 08:01:18;;;;;;;36.85;25.02;;;8.20;99.90;;;;;;5075718;28;20089;-81
2022/03/02 08:04:07;;;;;;;38.13;24.38;;;8.60;99.90;;;;;;5092481;28;20040;-81
2022/03/02 08:06:52;;;;;;;41.60;25.10;;;8.80;99.90;;;;;;5092377;28;20392;-80
2022/03/02 08:09:36;;;;;;;39.15;25.30;;;8.80;99.90;;;;;;5092545;28;20094;-81
2022/03/02 08:12:21;;;;;;;;;;;9.10;99.90;;;;;;5071577;28;20093;-82
2022/03/02 08:15:07;;;;;;;36.10;23.73;;;9.20;99.90;;;;;;5078820;28;19962;-81
2022/03/02 08:17:51;;;;;;;38.10;24.58;;;9.20;99.90;;;;;;5082058;28;20039;-81
2022/03/02 08:20:38;;;;;;;38.33;23.40;;;8.90;99.90;;;;;;5075921;28;20043;-81
2022/03/02 08:23:27;;;;;;;38.75;23.60;;;8.60;99.90;;;;;;5088388;28;20098;-81
2022/03/02 08:26:12;;;;;;;40.35;25.38;;;8.40;99.90;;;;;;5091058;28;20153;-82
2022/03/02 08:29:00;;;;;;;42.17;24.17;;;8.30;99.90;;;;;;5090472;28;20067;-81
2022/03/02 08:31:47;;;;;;;34.05;24.15;;;8.30;99.90;;;;;;5091293;28;20491;-81
2022/03/02 08:34:32;;;;;;;36.45;24.08;;;8.00;99.90;;;;;;5090739;28;20105;-80
2022/03/02 08:37:18;;;;;;;39.40;25.00;;;7.70;99.90;;;;;;5059211;28;20063;-81
2022/03/02 08:40:04;;;;;;;40.67;25.05;;;7.20;99.90;;;;;;5090523;28;20490;-81
2022/03/02 08:42:50;;;;;;;41.80;25.27;;;6.80;99.90;;;;;;5075520;28;20039;-81
2022/03/02 08:45:35;;;;;;;40.10;25.15;;;6.60;99.90;;;;;;5082018;28;20047;-82
2022/03/02 08:48:21;;;;;;;39.28;25.15;;;6.10;99.90;;;;;;5074863;28;20504;-81
2022/03/02 08:51:05;;;;;;;38.20;23.95;;;6.10;99.90;;;;;;5056315;28;20166;-81
2022/03/02 08:53:51;;;;;;;39.75;24.38;;;6.10;99.90;;;;;;5076282;28;20046;-81
2022/03/02 08:56:38;;;;;;;40.55;25.38;;;6.30;99.90;;;;;;5090326;28;20641;-81
2022/03/02 08:59:25;;;;;;;36.70;24.05;;;6.70;99.90;;;;;;5087236;28;20536;-81
2022/03/02 09:02:10;;;;;;;34.58;22.95;;;7.30;99.90;;;;;;5090503;28;20403;-82
2022/03/02 09:05:01;;;;;;;39.35;24.60;;;8.20;99.90;;;;;;5088969;28;20067;-81
2022/03/02 09:07:45;;;;;;;37.90;22.13;;;8.80;99.90;;;;;;5072170;28;20036;-81
2022/03/02 09:10:29;;;;;;;;;;;9.40;99.90;;;;;;5064163;28;20054;-81
2022/03/02 09:13:13;;;;;;;37.58;23.45;;;9.70;99.90;;;;;;5075695;28;19918;-80
2022/03/02 09:15:58;;;;;;;33.58;22.55;;;9.80;99.90;;;;;;5092028;28;20408;-81
2022/03/02 09:18:43;;;;;;;35.45;22.08;;;9.60;99.90;;;;;;5091371;28;20086;-81
2022/03/02 09:21:29;;;;;;;40.22;24.25;;;9.40;99.90;;;;;;5102554;28;20503;-81
2022/03/02 09:24:15;;;;;;;44.53;24.95;;;9.10;99.90;;;;;;5091877;28;20071;-81
2022/03/02 09:27:01;;;;;;;38.03;22.25;;;8.60;99.90;;;;;;5091174;28;20094;-81
2022/03/02 09:29:47;;;;;;;32.22;21.23;;;8.30;99.90;;;;;;5070582;28;20039;-82
2022/03/02 09:32:33;;;;;;;33.80;22.60;;;8.00;99.90;;;;;;5064152;28;20059;-82
2022/03/02 09:35:19;;;;;;;32.40;22.23;;;7.80;99.90;;;;;;5075476;28;20078;-81
2022/03/02 09:38:03;;;;;;;36.38;23.35;;;7.80;99.90;;;;;;5079314;28;20036;-82
2022/03/02 09:40:50;;;;;;;32.08;20.45;;;7.60;99.90;;;;;;5041825;28;20511;-81
2022/03/02 09:43:36;;;;;;;36.95;22.02;;;7.60;99.90;;;;;;5070556;28;20038;-81
2022/03/02 09:46:27;;;;;;;37.13;21.42;;;7.60;99.90;;;;;;5065622;28;20080;-84
2022/03/02 09:49:12;;;;;;;33.47;21.35;;;7.70;99.90;;;;;;5087982;28;20047;-80
2022/03/02 09:52:09;;;;;;;34.22;21.20;;;7.70;99.90;;;;;;5075219;28;20039;-81
2022/03/02 09:54:56;;;;;;;36.28;22.55;;;7.70;99.90;;;;;;5091088;28;20082;-81
2022/03/02 09:57:47;;;;;;;33.25;20.58;;;8.30;99.90;;;;;;5090570;28;20198;-82
2022/03/02 10:00:31;;;;;;;33.25;21.35;;;8.30;99.90;;;;;;5069394;28;20127;-82
2022/03/02 10:03:19;;;;;;;30.02;20.15;;;8.90;99.90;;;;;;5070722;28;20036;-81
2022/03/02 10:06:05;;;;;;;33.38;21.77;;;8.90;99.90;;;;;;5070337;28;20064;-82
2022/03/02 10:08:54;;;;;;;30.73;20.10;;;9.40;99.90;;;;;;5069658;28;20032;-82
2022/03/02 10:11:43;;;;;;;33.33;20.38;;;9.40;99.90;;;;;;5067655;28;20066;-83
2022/03/02 10:14:29;;;;;;;31.98;19.70;;;9.40;99.90;;;;;;5072208;28;20089;-83
2022/03/02 10:17:21;;;;;;;30.23;19.67;;;9.30;99.90;;;;;;5066384;28;20040;-83
2022/03/02 10:20:08;;;;;;;31.20;18.83;;;9.20;99.90;;;;;;5063820;28;20488;-81
2022/03/02 10:23:22;;;;;;;36.83;20.40;;;9.20;99.90;;;;;;5089899;28;20039;-81
2022/03/02 10:26:18;;;;;;;28.48;17.30;;;9.60;99.90;;;;;;5070885;28;20109;-81
2022/03/02 10:29:29;;;;;;;29.88;19.10;;;10.60;99.90;;;;;;5080536;28;20035;-82
2022/03/02 10:32:17;;;;;;;27.17;19.98;;;11.50;96.80;;;;;;5075075;28;20065;-82
2022/03/02 10:35:08;;;;;;;27.67;17.73;;;12.20;96.40;;;;;;5065551;28;20044;-81
2022/03/02 10:37:57;;;;;;;30.48;18.88;;;12.50;94.20;;;;;;5082894;28;20070;-82
2022/03/02 10:40:43;;;;;;;30.63;19.73;;;12.70;93.10;;;;;;5083494;28;20131;-82
2022/03/02 10:43:39;;;;;;;26.33;18.17;;;12.80;92.10;;;;;;5090496;28;20094;-83
2022/03/02 10:46:24;;;;;;;27.10;19.80;;;12.60;91.50;;;;;;5092819;28;20058;-82
2022/03/02 10:49:20;;;;;;;30.35;19.95;;;12.30;91.70;;;;;;5077346;28;20097;-82
2022/03/02 10:52:05;;;;;;;29.17;18.75;;;11.80;90.60;;;;;;5083322;28;20397;-82
2022/03/02 10:54:52;;;;;;;29.63;18.52;;;11.20;92.40;;;;;;5072336;28;20287;-82
2022/03/02 10:57:39;;;;;;;28.00;19.52;;;10.70;93.30;;;;;;5076530;28;20047;-83
2022/03/02 11:00:25;;;;;;;27.17;18.08;;;10.30;94.10;;;;;;5093389;28;20092;-82
2022/03/02 11:03:10;;;;;;;29.23;19.65;;;10.10;94.50;;;;;;5063479;28;20128;-81
2022/03/02 11:06:01;;;;;;;32.75;20.52;;;10.00;95.50;;;;;;5092475;28;20047;-80
2022/03/02 11:08:48;;;;;;;29.70;18.88;;;10.00;95.30;;;;;;5078199;28;20037;-81
2022/03/02 11:11:37;;;;;;;28.73;18.77;;;10.10;96.00;;;;;;5057037;28;20551;-81
2022/03/02 11:14:21;;;;;;;31.92;18.70;;;10.40;95.40;;;;;;5072731;28;20044;-81
2022/03/02 11:17:16;;;;;;;30.38;19.23;;;10.60;94.70;;;;;;5083364;28;20162;-81
2022/03/02 11:20:08;;;;;;;29.52;19.38;;;10.60;94.10;;;;;;5070670;28;20055;-81
2022/03/02 11:22:58;;;;;;;32.30;20.60;;;10.40;94.20;;;;;;5042585;28;20048;-81
2022/03/02 11:25:49;;;;;;;29.40;18.90;;;10.20;94.50;;;;;;5057416;28;20130;-80
2022/03/02 11:28:35;;;;;;;28.85;18.73;;;10.00;94.60;;;;;;5077479;28;20039;-81
2022/03/02 11:31:21;;;;;;;31.17;20.45;;;9.90;95.10;;;;;;5081972;28;20158;-80
2022/03/02 11:34:18;;;;;;;28.85;19.27;;;9.80;94.90;;;;;;5073441;28;20110;-82
2022/03/02 11:37:05;;;;;;;27.80;18.63;;;9.80;95.20;;;;;;5092387;28;20442;-86
2022/03/02 11:39:49;;;;;;;30.17;19.77;;;9.80;95.30;;;;;;5076470;28;20089;-80
2022/03/02 11:42:37;;;;;;;;;;;9.90;95.70;;;;;;5070904;28;20097;-81
2022/03/02 11:45:26;;;;;;;30.00;18.77;;;9.90;95.10;;;;;;5076526;28;20287;-81
2022/03/02 11:48:15;;;;;;;28.48;19.33;;;9.80;95.60;;;;;;5065654;28;20051;-84
2022/03/02 11:50:59;;;;;;;31.10;19.60;;;9.80;95.60;;;;;;5074589;28;20400;-81
2022/03/02 11:53:52;;;;;;;29.08;19.58;;;9.80;95.30;;;;;;5065621;28;20128;-80
2022/03/02 11:56:37;;;;;;;27.13;17.30;;;9.80;95.30;;;;;;5071964;28;20047;-81
2022/03/02 11:59:21;;;;;;;28.88;18.73;;;9.80;95.50;;;;;;5056845;28;20150;-82
2022/03/02 12:02:21;;;;;;;27.88;18.27;;;9.80;95.10;;;;;;5072825;28;20421;-83
2022/03/02 12:05:07;;;;;;;25.30;17.88;;;9.90;95.20;;;;;;5071981;28;20108;-81
2022/03/02 12:08:09;;;;;;;27.50;18.45;;;9.90;94.70;;;;;;5072062;28;20106;-81
2022/03/02 12:10:54;;;;;;;26.50;17.85;;;9.90;94.50;;;;;;5072380;28;20540;-80
2022/03/02 12:13:40;;;;;;;28.17;18.30;;;9.90;94.30;;;;;;5057715;28;20039;-81
2022/03/02 12:16:49;;;;;;;29.05;18.75;;;10.00;94.60;;;;;;5072763;28;20502;-79
2022/03/02 12:19:33;;;;;;;28.38;17.58;;;10.20;94.30;;;;;;5072980;28;20047;-80
2022/03/02 12:22:18;;;;;;;27.98;18.92;;;10.40;94.10;;;;;;5057434;28;20075;-80
2022/03/02 12:25:04;;;;;;;27.20;18.63;;;10.50;94.00;;;;;;5070943;28;20122;-80
2022/03/02 12:28:02;;;;;;;26.48;17.17;;;10.60;93.30;;;;;;5071917;28;20496;-81
2022/03/02 12:30:47;;;;;;;27.98;17.17;;;10.70;92.20;;;;;;5087289;28;20042;-78
2022/03/02 12:33:31;;;;;;;25.48;17.02;;;10.80;92.60;;;;;;5076792;28;20089;-80
2022/03/02 12:36:15;;;;;;;25.58;17.35;;;10.70;91.00;;;;;;5077452;28;20043;-79
2022/03/02 12:38:59;;;;;;;28.67;17.98;;;10.60;91.10;;;;;;5071441;28;20075;-80
2022/03/02 12:41:43;;;;;;;25.20;17.27;;;10.70;91.70;;;;;;5073562;28;20625;-82
2022/03/02 12:44:29;;;;;;;;;;;10.70;91.70;;;;;;5077772;28;20094;-80
2022/03/02 12:47:19;;;;;;;26.63;17.13;;;10.80;89.30;;;;;;5076727;28;20065;-80
2022/03/02 12:50:06;;;;;;;26.58;16.92;;;10.80;91.20;;;;;;5091937;28;20043;-80
2022/03/02 12:52:52;;;;;;;28.25;17.48;;;10.70;91.10;;;;;;5092051;28;20043;-79
2022/03/02 12:55:38;;;;;;;26.75;17.38;;;10.80;91.50;;;;;;5092286;28;20074;-80
2022/03/02 12:58:23;;;;;;;25.38;17.25;;;10.90;90.90;;;;;;5092510;28;20507;-80
2022/03/02 13:01:07;;;;;;;26.75;18.23;;;10.90;90.50;;;;;;5076020;28;20070;-80
2022/03/02 13:03:55;;;;;;;25.25;16.83;;;10.90;90.90;;;;;;5074992;28;20090;-80
2022/03/02 13:06:48;;;;;;;25.08;16.45;;;10.90;90.70;;;;;;5092316;28;20047;-80
2022/03/02 13:09:38;;;;;;;30.52;17.65;;;11.10;91.00;;;;;;5092326;28;20039;-81
2022/03/02 13:12:34;;;;;;;25.67;17.25;;;11.20;90.80;;;;;;5092000;28;20400;-80
2022/03/02 13:15:18;;;;;;;25.08;17.25;;;11.30;90.50;;;;;;5092466;28;20091;-79
2022/03/02 13:18:11;;;;;;;;;;;11.30;89.70;;;;;;5091939;28;20131;-79
2022/03/02 13:20:55;;;;;;;24.08;16.08;;;11.20;89.70;;;;;;5090812;28;19962;-79
2022/03/02 13:23:40;;;;;;;26.30;17.70;;;11.20;90.30;;;;;;5092284;28;20046;-79
2022/03/02 13:26:24;;;;;;;25.48;16.75;;;11.30;90.00;;;;;;5083592;28;20129;-79
2022/03/02 13:29:14;;;;;;;27.10;18.23;;;11.30;89.10;;;;;;5088114;28;20105;-80
2022/03/02 13:32:03;;;;;;;24.35;18.35;;;11.30;88.80;;;;;;5074995;28;20044;-81
2022/03/02 13:35:09;;;;;;;27.27;17.25;;;11.20;84.90;;;;;;5090784;28;20086;-79
2022/03/02 13:38:10;;;;;;;23.88;16.58;;;11.10;87.20;;;;;;5082593;28;20042;-80
2022/03/02 13:40:54;;;;;;;23.65;16.15;;;11.10;86.30;;;;;;5076227;28;20085;-80
2022/03/02 13:43:39;;;;;;;27.63;17.30;;;11.10;86.50;;;;;;5083798;28;20047;-81
2022/03/02 13:46:24;;;;;;;25.73;17.10;;;11.10;86.30;;;;;;5075347;28;20106;-79
2022/03/02 13:49:08;;;;;;;27.27;18.08;;;11.10;86.10;;;;;;5061401;28;20519;-78
2022/03/02 13:51:52;;;;;;;24.35;16.40;;;11.10;86.60;;;;;;5069864;28;20444;-81
2022/03/02 13:54:37;;;;;;;23.90;16.17;;;11.20;86.50;;;;;;5054646;28;20043;-79
2022/03/02 13:57:23;;;;;;;26.50;17.92;;;11.30;86.30;;;;;;5078223;28;20086;-81
2022/03/02 14:00:20;;;;;;;26.10;16.38;;;11.30;85.20;;;;;;5088774;28;20086;-81
2022/03/02 14:03:05;;;;;;;23.60;16.85;;;11.30;82.40;;;;;;5076365;28;20078;-81
2022/03/02 14:05:49;;;;;;;28.30;17.25;;;11.30;83.50;;;;;;5082601;28;20120;-79
2022/03/02 14:08:43;;;;;;;;;;;11.30;83.50;;;;;;5069781;28;20047;-78
2022/03/02 14:11:42;;;;;;;31.20;16.08;;;11.20;81.30;;;;;;5062621;28;19966;-79
2022/03/02 14:14:28;;;;;;;27.30;17.10;;;11.20;83.90;;;;;;5092035;28;20491;-81
2022/03/02 14:17:12;;;;;;;24.15;17.05;;;11.20;81.70;;;;;;5073371;28;20044;-80
2022/03/02 14:19:57;;;;;;;24.55;16.90;;;11.20;83.60;;;;;;5087172;28;20442;-81
2022/03/02 14:22:41;;;;;;;26.20;16.27;;;11.30;83.70;;;;;;5095051;28;20131;-80
2022/03/02 14:25:26;;;;;;;25.73;16.60;;;11.30;82.90;;;;;;5075153;28;20050;-79